createdAt,value
2018-04-13T11:58:51.997Z,15.03
2018-04-13T12:01:18.056Z,15.53
2018-04-13T12:03:44.564Z,14.73
2018-04-13T12:06:10.640Z,16.33
2018-04-13T12:08:36.996Z,16.33
2018-04-13T12:11:03.335Z,15.60
2018-04-13T12:13:30.320Z,15.03
2018-04-13T12:15:56.356Z,15.83
2018-04-13T12:18:22.409Z,16.80
2018-04-13T12:20:49.007Z,16.27
2018-04-13T12:23:15.096Z,16.07
2018-04-13T12:25:41.137Z,16.83
2018-04-13T12:28:07.229Z,17.03
2018-04-13T12:30:33.288Z,16.33
2018-04-13T12:32:59.291Z,17.07
2018-04-13T12:35:25.379Z,18.27
2018-04-13T12:37:51.416Z,16.83
2018-04-13T12:40:17.436Z,17.60
2018-04-13T12:42:43.440Z,17.77
2018-04-13T12:45:09.465Z,19.50
2018-04-13T12:47:35.508Z,17.97
2018-04-13T12:50:01.537Z,17.63
2018-04-13T12:52:27.573Z,19.20
2018-04-13T12:54:53.898Z,18.43
2018-04-13T12:57:19.716Z,18.13
2018-04-13T12:59:46.736Z,19.33
2018-04-13T13:02:12.796Z,21.20
2018-04-13T13:04:38.812Z,20.13
2018-04-13T13:07:05.873Z,22.40
2018-04-13T13:09:31.880Z,21.17
2018-04-13T13:11:57.933Z,20.67
2018-04-13T13:14:24.773Z,20.73
2018-04-13T13:16:50.795Z,22.10
2018-04-13T13:19:16.812Z,22.47
2018-04-13T13:21:42.824Z,23.83
2018-04-13T13:24:08.820Z,23.37
2018-04-13T13:26:34.897Z,22.73
2018-04-13T13:29:00.931Z,24.60
2018-04-13T13:31:27.241Z,23.10
2018-04-13T13:33:53.300Z,22.10
2018-04-13T13:36:19.309Z,23.90
2018-04-13T13:38:45.409Z,24.20
2018-04-13T13:41:11.449Z,23.57
2018-04-13T13:43:37.976Z,23.83
2018-04-13T13:46:04.004Z,21.83
2018-04-13T13:48:29.997Z,22.33
2018-04-13T13:50:56.312Z,22.43
2018-04-13T13:53:22.510Z,23.57
2018-04-13T13:55:48.521Z,23.70
2018-04-13T13:58:14.554Z,22.90
2018-04-13T14:00:40.559Z,22.47
2018-04-13T14:03:06.685Z,23.20
2018-04-13T14:05:33.280Z,24.17
2018-04-13T14:07:59.440Z,25.60
2018-04-13T14:10:25.501Z,24.63
2018-04-13T14:12:52.273Z,25.43
2018-04-13T14:15:18.468Z,25.13
2018-04-13T14:17:44.632Z,25.73
2018-04-13T14:20:10.625Z,26.70
2018-04-13T14:22:36.845Z,24.57
2018-04-13T14:25:02.838Z,23.87
2018-04-13T14:27:28.881Z,24.83
2018-04-13T14:29:55.498Z,23.77
2018-04-13T14:32:21.612Z,24.57
2018-04-13T14:34:47.721Z,25.77
2018-04-13T14:37:13.784Z,22.23
2018-04-13T14:39:39.772Z,24.93
2018-04-13T14:42:05.836Z,23.40
2018-04-13T14:44:31.892Z,24.53
2018-04-13T14:46:57.904Z,22.23
2018-04-13T14:49:23.905Z,23.00
2018-04-13T14:51:50.025Z,23.87
2018-04-13T14:54:16.020Z,25.37
2018-04-13T14:56:42.064Z,25.57
2018-04-13T14:59:08.194Z,23.40
2018-04-13T15:01:34.624Z,26.57
2018-04-13T15:04:00.640Z,25.20
2018-04-13T15:06:26.696Z,23.97
2018-04-13T15:08:52.767Z,26.57
2018-04-13T15:11:19.540Z,24.97
2018-04-13T15:13:45.685Z,25.00
2018-04-13T15:16:12.392Z,27.00
2018-04-13T15:18:38.490Z,25.27
2018-04-13T15:21:04.485Z,25.63
2018-04-13T15:23:30.618Z,24.97
2018-04-13T15:25:57.120Z,26.07
2018-04-13T15:28:23.192Z,25.57
2018-04-13T15:30:49.587Z,25.00
2018-04-13T15:33:15.685Z,23.67
2018-04-13T15:35:41.776Z,25.10
2018-04-13T15:38:07.825Z,25.20
2018-04-13T15:40:33.864Z,25.10
2018-04-13T15:42:59.885Z,24.50
2018-04-13T15:45:25.956Z,22.83
2018-04-13T15:47:52.749Z,23.70
2018-04-13T15:50:18.782Z,24.10
2018-04-13T15:52:45.281Z,23.37
2018-04-13T15:55:11.297Z,23.83
2018-04-13T15:57:37.341Z,24.13
2018-04-13T16:00:04.164Z,24.10
2018-04-13T16:02:30.200Z,26.42
2018-04-13T16:04:56.261Z,23.80
2018-04-13T16:07:22.280Z,23.20
2018-04-13T16:09:48.420Z,24.57
2018-04-13T16:12:14.486Z,23.47
2018-04-13T16:14:40.500Z,22.97
2018-04-13T16:17:06.525Z,22.03
2018-04-13T16:19:32.537Z,22.33
2018-04-13T16:21:58.566Z,24.03
2018-04-13T16:24:24.613Z,24.90
2018-04-13T16:26:50.649Z,22.70
2018-04-13T16:29:16.745Z,21.17
2018-04-13T16:31:42.745Z,21.50
2018-04-13T16:34:08.780Z,22.60
2018-04-13T16:36:34.820Z,21.93
2018-04-13T16:39:01.005Z,21.50
2018-04-13T16:41:26.973Z,20.63
2018-04-13T16:43:52.985Z,21.97
2018-04-13T16:46:19.008Z,22.30
2018-04-13T16:48:45.245Z,22.27
2018-04-13T16:51:11.262Z,22.97
2018-04-13T16:53:37.272Z,22.93
2018-04-13T16:56:03.281Z,23.47
2018-04-13T16:58:29.296Z,23.63
2018-04-13T17:00:55.940Z,23.17
2018-04-13T17:03:21.956Z,23.00
2018-04-13T17:05:47.968Z,22.97
2018-04-13T17:08:13.985Z,24.30
2018-04-13T17:10:40.008Z,23.60
2018-04-13T17:13:06.048Z,25.60
2018-04-13T17:15:32.098Z,26.13
2018-04-13T17:17:58.109Z,25.13
2018-04-13T17:20:24.115Z,25.27
2018-04-13T17:22:50.125Z,24.80
2018-04-13T17:25:16.601Z,26.20
2018-04-13T17:27:42.657Z,26.73
2018-04-13T17:30:08.868Z,26.20
2018-04-13T17:32:35.185Z,26.83
2018-04-13T17:35:01.406Z,27.00
2018-04-13T17:37:27.622Z,27.43
2018-04-13T17:39:53.689Z,27.17
2018-04-13T17:42:19.748Z,28.33
2018-04-13T17:44:45.781Z,27.63
2018-04-13T17:47:11.812Z,27.20
2018-04-13T17:49:37.952Z,28.33
2018-04-13T17:52:04.296Z,29.77
2018-04-13T17:54:30.393Z,28.73
2018-04-13T17:56:56.567Z,27.80
2018-04-13T17:59:23.138Z,28.80
2018-04-13T18:01:49.284Z,29.47
2018-04-13T18:04:15.460Z,29.00
2018-04-13T18:06:42.444Z,29.40
2018-04-13T18:09:08.476Z,30.07
2018-04-13T18:11:34.481Z,29.63
2018-04-13T18:14:00.644Z,29.90
2018-04-13T18:16:26.688Z,28.00
2018-04-13T18:18:52.828Z,31.13
2018-04-13T18:21:18.861Z,29.80
2018-04-13T18:23:44.854Z,29.50
2018-04-13T18:26:10.948Z,31.07
2018-04-13T18:28:36.957Z,32.10
2018-04-13T18:31:02.968Z,31.87
2018-04-13T18:33:29.052Z,31.83
2018-04-13T18:35:55.092Z,30.17
2018-04-13T18:38:21.124Z,32.13
2018-04-13T18:40:47.162Z,31.43
2018-04-13T18:43:13.516Z,32.23
2018-04-13T18:45:40.309Z,32.27
2018-04-13T18:48:06.312Z,33.93
2018-04-13T18:50:32.341Z,31.23
2018-04-13T18:52:58.360Z,32.77
2018-04-13T18:55:24.377Z,32.93
2018-04-13T18:57:50.408Z,32.60
2018-04-13T19:00:16.412Z,33.60
2018-04-13T19:02:42.450Z,31.63
2018-04-13T19:05:08.680Z,32.33
2018-04-13T19:07:34.683Z,33.90
2018-04-13T19:10:00.753Z,32.57
2018-04-13T19:12:27.372Z,32.43
2018-04-13T19:14:53.423Z,32.80
2018-04-13T19:17:20.169Z,33.93
2018-04-13T19:19:46.170Z,32.93
2018-04-13T19:22:12.341Z,33.60
2018-04-13T19:24:38.515Z,33.07
2018-04-13T19:27:04.569Z,34.87
2018-04-13T19:29:30.593Z,36.43
2018-04-13T19:31:56.734Z,34.83
2018-04-13T19:34:22.744Z,35.37
2018-04-13T19:36:48.758Z,33.80
2018-04-13T19:39:14.808Z,34.90
2018-04-13T19:41:41.296Z,36.77
2018-04-13T19:44:07.305Z,33.07
2018-04-13T19:46:33.389Z,35.20
2018-04-13T19:48:59.397Z,37.40
2018-04-13T19:51:25.436Z,33.37
2018-04-13T19:53:51.616Z,35.63
2018-04-13T19:56:17.846Z,35.13
2018-04-13T19:58:44.002Z,35.07
2018-04-13T20:01:10.069Z,34.67
2018-04-13T20:03:36.191Z,32.67
2018-04-13T20:06:02.680Z,35.47
2018-04-13T20:11:22.833Z,34.67
2018-04-13T20:13:49.020Z,35.80
2018-04-13T20:16:19.981Z,35.17
2018-04-13T20:18:46.093Z,35.53
2018-04-13T20:21:12.125Z,36.13
2018-04-13T20:23:38.207Z,38.30
2018-04-13T20:26:04.393Z,36.63
2018-04-13T20:28:30.413Z,34.97
2018-04-13T20:30:57.001Z,34.90
2018-04-13T20:33:23.009Z,36.27
2018-04-13T20:35:49.051Z,40.92
2018-04-13T20:38:15.685Z,37.53
2018-04-13T20:40:41.716Z,37.70
2018-04-13T20:43:07.787Z,35.67
2018-04-13T20:45:33.840Z,37.10
2018-04-13T20:48:00.192Z,37.47
2018-04-13T20:50:26.203Z,37.67
2018-04-13T20:52:52.677Z,37.30
2018-04-13T20:55:19.505Z,39.50
2018-04-13T20:57:45.601Z,38.10
2018-04-13T21:00:12.357Z,37.97
2018-04-13T21:02:38.368Z,38.27
2018-04-13T21:05:05.025Z,41.10
2018-04-13T21:07:32.204Z,38.37
2018-04-13T21:09:58.200Z,38.27
2018-04-13T21:12:24.200Z,38.53
2018-04-13T21:14:50.229Z,39.90
2018-04-13T21:17:16.276Z,41.83
2018-04-13T21:19:42.451Z,41.53
2018-04-13T21:22:08.809Z,36.97
2018-04-13T21:24:34.836Z,38.43
2018-04-13T21:27:00.980Z,42.10
2018-04-13T21:29:26.989Z,41.90
2018-04-13T21:31:53.368Z,42.50
2018-04-13T21:34:19.372Z,41.97
2018-04-13T21:36:45.425Z,43.27
2018-04-13T21:39:11.823Z,40.90
2018-04-13T21:41:37.838Z,44.10
2018-04-13T21:44:03.913Z,43.70
2018-04-13T21:46:29.925Z,45.57
2018-04-13T21:48:55.938Z,41.03
2018-04-13T21:51:21.945Z,42.37
2018-04-13T21:53:47.979Z,44.70
2018-04-13T21:56:14.057Z,44.80
2018-04-13T21:58:40.065Z,43.03
2018-04-13T22:01:06.812Z,43.90
2018-04-13T22:03:32.960Z,46.43
2018-04-13T22:05:58.961Z,45.60
2018-04-13T22:08:25.216Z,44.53
2018-04-13T22:10:51.228Z,45.57
2018-04-13T22:13:29.965Z,45.50
2018-04-13T22:15:56.017Z,45.50
2018-04-13T22:18:22.024Z,43.40
2018-04-13T22:20:48.104Z,44.13
2018-04-13T22:23:14.120Z,44.70
2018-04-13T22:25:40.152Z,43.80
2018-04-13T22:28:06.201Z,45.00
2018-04-13T22:30:32.239Z,44.37
2018-04-13T22:32:58.879Z,42.70
2018-04-13T22:35:24.925Z,41.67
2018-04-13T22:37:50.956Z,44.23
2018-04-13T22:40:17.137Z,44.00
2018-04-13T22:42:43.172Z,42.73
2018-04-13T22:45:09.812Z,41.07
2018-04-13T22:47:35.821Z,40.83
2018-04-13T22:50:01.833Z,42.23
2018-04-13T22:52:27.848Z,42.30
2018-04-13T22:54:53.887Z,44.07
2018-04-13T22:57:19.930Z,42.47
2018-04-13T22:59:45.952Z,41.47
2018-04-13T23:02:11.958Z,44.63
2018-04-13T23:04:38.005Z,43.10
2018-04-13T23:07:04.026Z,43.77
2018-04-13T23:09:30.094Z,44.77
2018-04-13T23:11:56.126Z,43.17
2018-04-13T23:14:22.185Z,39.90
2018-04-13T23:16:48.936Z,41.20
2018-04-13T23:19:14.969Z,41.90
2018-04-13T23:21:41.036Z,41.43
2018-04-13T23:24:07.209Z,41.90
2018-04-13T23:26:33.258Z,42.70
2018-04-13T23:28:59.268Z,43.53
2018-04-13T23:31:25.344Z,41.57
2018-04-13T23:33:51.929Z,44.47
2018-04-13T23:36:17.985Z,41.13
2018-04-13T23:38:43.993Z,42.53
2018-04-13T23:41:10.026Z,43.13
2018-04-13T23:43:36.098Z,45.23
2018-04-13T23:46:02.144Z,43.53
2018-04-13T23:48:28.182Z,45.40
2018-04-13T23:50:54.222Z,45.57
2018-04-13T23:53:20.236Z,48.77
2018-04-13T23:55:46.280Z,44.93
2018-04-13T23:58:12.328Z,47.13
